createdAt,value
2023-03-16T00:00:35.188Z,0.60
2023-03-16T00:02:36.769Z,0.50
2023-03-16T00:04:38.439Z,0.50
2023-03-16T00:06:40.085Z,0.50
2023-03-16T00:08:43.313Z,0.50
2023-03-16T00:10:48.068Z,0.50
2023-03-16T00:12:49.733Z,0.50
2023-03-16T00:14:51.290Z,0.40
2023-03-16T00:16:53.335Z,0.40
2023-03-16T00:18:55.156Z,0.40
2023-03-16T00:20:59.200Z,0.40
2023-03-16T00:23:02.604Z,0.40
2023-03-16T00:25:04.640Z,0.50
2023-03-16T00:27:06.199Z,0.50
2023-03-16T00:29:07.861Z,0.50
2023-03-16T00:31:14.685Z,0.40
2023-03-16T00:33:16.751Z,0.40
2023-03-16T00:35:18.491Z,0.40
2023-03-16T00:37:23.522Z,0.40
2023-03-16T00:39:25.427Z,0.40
2023-03-16T00:41:27.124Z,0.30
2023-03-16T00:43:28.815Z,0.30
2023-03-16T00:45:30.420Z,0.30
2023-03-16T00:47:33.082Z,0.30
2023-03-16T00:49:35.670Z,0.30
2023-03-16T00:51:37.415Z,0.30
2023-03-16T00:53:39.962Z,0.30
2023-03-16T00:55:41.701Z,0.30
2023-03-16T00:57:43.432Z,0.20
2023-03-16T00:59:45.653Z,0.30
2023-03-16T01:01:47.897Z,0.30
2023-03-16T01:03:49.571Z,0.30
2023-03-16T01:05:51.333Z,0.30
2023-03-16T01:07:52.932Z,0.40
2023-03-16T01:09:54.802Z,0.30
2023-03-16T01:11:56.480Z,0.30
2023-03-16T01:13:58.102Z,0.20
2023-03-16T01:16:00.334Z,0.20
2023-03-16T01:18:02.150Z,0.20
2023-03-16T01:20:08.187Z,0.30
2023-03-16T01:22:10.135Z,0.20
2023-03-16T01:24:11.812Z,0.20
2023-03-16T01:26:15.159Z,0.20
2023-03-16T01:28:16.838Z,0.20
2023-03-16T01:30:18.429Z,0.20
2023-03-16T01:32:20.746Z,0.20
2023-03-16T01:34:22.720Z,0.10
2023-03-16T01:36:24.458Z,0.20
2023-03-16T01:38:26.060Z,0.10
2023-03-16T01:40:27.868Z,0.20
2023-03-16T01:42:29.609Z,0.20
2023-03-16T01:44:49.798Z,0.10
2023-03-16T01:46:51.420Z,0.20
2023-03-16T01:48:59.251Z,0.20
2023-03-16T01:51:00.959Z,0.20
2023-03-16T01:53:02.700Z,0.10
2023-03-16T01:55:06.026Z,0.10
2023-03-16T01:57:09.228Z,0.10
2023-03-16T01:59:14.050Z,0.00
2023-03-16T02:01:15.873Z,0.00
2023-03-16T02:03:18.679Z,0.00
2023-03-16T02:05:27.940Z,0.00
2023-03-16T02:07:31.880Z,0.00
2023-03-16T02:09:34.961Z,0.00
2023-03-16T02:11:36.762Z,0.00
2023-03-16T02:13:38.378Z,-0.10
2023-03-16T02:15:40.130Z,0.00
2023-03-16T02:17:42.658Z,0.00
2023-03-16T02:19:59.250Z,-0.10
2023-03-16T02:22:07.259Z,-0.10
2023-03-16T02:24:08.994Z,0.00
2023-03-16T02:26:29.070Z,0.00
2023-03-16T02:28:49.536Z,-0.10
2023-03-16T02:30:51.394Z,-0.10
2023-03-16T02:32:54.250Z,-0.10
2023-03-16T02:34:56.701Z,-0.10
2023-03-16T02:36:59.149Z,-0.10
2023-03-16T02:39:00.800Z,-0.10
2023-03-16T02:41:13.748Z,-0.10
2023-03-16T02:43:24.909Z,-0.10
2023-03-16T02:45:28.321Z,-0.20
2023-03-16T02:47:41.681Z,-0.20
2023-03-16T02:49:44.932Z,-0.20
2023-03-16T02:51:47.136Z,-0.10
2023-03-16T02:53:48.948Z,-0.10
2023-03-16T02:55:50.708Z,-0.10
2023-03-16T02:57:52.422Z,-0.10
2023-03-16T02:59:54.341Z,-0.20
2023-03-16T03:01:56.184Z,-0.20
2023-03-16T03:03:57.939Z,-0.30
2023-03-16T03:06:00.135Z,-0.20
2023-03-16T03:08:01.857Z,-0.20
2023-03-16T03:10:05.987Z,-0.20
2023-03-16T03:12:08.882Z,-0.20
2023-03-16T03:14:10.547Z,-0.20
2023-03-16T03:16:12.682Z,-0.20
2023-03-16T03:18:14.501Z,-0.30
2023-03-16T03:20:17.536Z,-0.20
2023-03-16T03:22:19.251Z,-0.30
2023-03-16T03:24:20.929Z,-0.30
2023-03-16T03:26:22.561Z,-0.30
2023-03-16T03:28:24.191Z,-0.30
2023-03-16T03:30:26.092Z,-0.20
2023-03-16T03:32:27.974Z,-0.30
2023-03-16T03:34:29.909Z,-0.30
2023-03-16T03:36:31.537Z,-0.30
2023-03-16T03:38:33.162Z,-0.30
2023-03-16T03:40:35.069Z,-0.30
2023-03-16T03:42:36.728Z,-0.30
2023-03-16T03:44:38.323Z,-0.30
2023-03-16T03:46:40.001Z,-0.40
2023-03-16T03:48:41.828Z,-0.40
2023-03-16T03:50:43.520Z,-0.40
2023-03-16T03:52:45.230Z,-0.30
2023-03-16T03:54:46.835Z,-0.30
2023-03-16T03:56:48.512Z,-0.40
2023-03-16T03:58:50.126Z,-0.30
2023-03-16T04:00:52.027Z,-0.40
2023-03-16T04:02:53.773Z,-0.40
2023-03-16T04:04:55.523Z,-0.40
2023-03-16T04:06:57.190Z,-0.40
2023-03-16T04:08:58.908Z,-0.40
2023-03-16T04:11:01.003Z,-0.40
2023-03-16T04:13:02.702Z,-0.40
2023-03-16T04:15:04.933Z,-0.40
2023-03-16T04:17:07.395Z,-0.40
2023-03-16T04:19:09.435Z,-0.40
2023-03-16T04:21:14.058Z,-0.50
2023-03-16T04:23:16.697Z,-0.40
2023-03-16T04:25:18.303Z,-0.40
2023-03-16T04:27:19.958Z,-0.40
2023-03-16T04:29:21.603Z,-0.40
2023-03-16T04:31:23.289Z,-0.40
2023-03-16T04:33:25.015Z,-0.40
2023-03-16T04:35:26.777Z,-0.40
2023-03-16T04:37:28.475Z,-0.40
2023-03-16T04:39:30.249Z,-0.50
2023-03-16T04:41:32.119Z,-0.50
2023-03-16T04:43:34.460Z,-0.50
2023-03-16T04:45:36.176Z,-0.50
2023-03-16T04:47:38.170Z,-0.50
2023-03-16T04:49:39.840Z,-0.50
2023-03-16T04:51:42.551Z,-0.50
2023-03-16T04:53:44.693Z,-0.50
2023-03-16T04:55:46.618Z,-0.50
2023-03-16T04:57:48.584Z,-0.50
2023-03-16T04:59:51.002Z,-0.50
2023-03-16T05:01:53.617Z,-0.50
2023-03-16T05:03:56.139Z,-0.50
2023-03-16T05:05:58.444Z,-0.50
2023-03-16T05:08:01.467Z,-0.50
2023-03-16T05:10:03.707Z,-0.50
2023-03-16T05:12:05.479Z,-0.50
2023-03-16T05:14:07.119Z,-0.40
2023-03-16T05:16:08.727Z,-0.50
2023-03-16T05:18:10.383Z,-0.50
2023-03-16T05:20:15.851Z,-0.50
2023-03-16T05:22:17.998Z,-0.50
2023-03-16T05:24:19.588Z,-0.50
2023-03-16T05:26:21.244Z,-0.40
2023-03-16T05:28:23.701Z,-0.40
2023-03-16T05:30:26.715Z,-0.40
2023-03-16T05:32:28.431Z,-0.50
2023-03-16T05:34:31.629Z,-0.50
2023-03-16T05:36:35.853Z,-0.50
2023-03-16T05:38:39.098Z,-0.50
2023-03-16T05:40:40.751Z,-0.50
2023-03-16T05:42:43.342Z,-0.50
2023-03-16T05:44:45.097Z,-0.50
2023-03-16T05:46:47.911Z,-0.40
2023-03-16T05:48:49.523Z,-0.40
2023-03-16T05:50:51.722Z,-0.40
2023-03-16T05:52:54.224Z,-0.40
2023-03-16T05:54:55.933Z,-0.40
2023-03-16T05:57:00.918Z,-0.40
2023-03-16T05:59:02.774Z,-0.40
2023-03-16T06:01:06.071Z,-0.30
2023-03-16T06:03:07.807Z,-0.30
2023-03-16T06:05:09.653Z,-0.20
2023-03-16T06:07:11.326Z,-0.20
2023-03-16T06:09:12.996Z,-0.20
2023-03-16T06:11:15.677Z,-0.30
2023-03-16T06:13:17.374Z,-0.30
2023-03-16T06:15:19.096Z,-0.30
2023-03-16T06:17:21.492Z,-0.30
2023-03-16T06:19:23.129Z,-0.20
2023-03-16T06:21:24.785Z,-0.20
2023-03-16T06:23:26.381Z,-0.20
2023-03-16T06:25:27.939Z,-0.10
2023-03-16T06:27:29.844Z,-0.10
2023-03-16T06:29:31.554Z,-0.10
2023-03-16T06:31:34.029Z,-0.10
2023-03-16T06:33:35.700Z,-0.10
2023-03-16T06:35:37.743Z,0.00
2023-03-16T06:37:39.769Z,0.00
2023-03-16T06:39:41.317Z,0.00
2023-03-16T06:41:43.988Z,0.00
2023-03-16T06:43:45.620Z,0.10
2023-03-16T06:45:47.209Z,0.10
2023-03-16T06:47:51.440Z,0.20
2023-03-16T06:49:55.156Z,0.20
2023-03-16T06:51:58.601Z,0.30
2023-03-16T06:54:00.291Z,0.30
2023-03-16T06:56:01.924Z,0.40
2023-03-16T06:58:03.534Z,0.40
2023-03-16T07:00:07.299Z,0.40
2023-03-16T07:02:11.945Z,0.40
2023-03-16T07:04:13.672Z,0.50
2023-03-16T07:06:15.630Z,0.60
2023-03-16T07:08:17.256Z,0.60
2023-03-16T07:10:19.467Z,0.70
2023-03-16T07:12:21.202Z,0.70
2023-03-16T07:14:24.723Z,0.70
2023-03-16T07:16:26.421Z,0.80
2023-03-16T07:18:30.133Z,0.80
2023-03-16T07:20:32.953Z,0.90
2023-03-16T07:22:34.636Z,0.90
2023-03-16T07:24:36.386Z,1.00
2023-03-16T07:26:38.083Z,1.00
2023-03-16T07:28:39.634Z,1.10
2023-03-16T07:30:45.948Z,1.20
2023-03-16T07:32:55.067Z,1.20
2023-03-16T07:34:59.178Z,1.30
2023-03-16T07:37:00.996Z,1.30
2023-03-16T07:39:02.961Z,1.40
2023-03-16T07:41:04.819Z,1.50
2023-03-16T07:43:06.409Z,1.50
2023-03-16T07:45:08.374Z,1.60
2023-03-16T07:47:12.582Z,1.70
2023-03-16T07:49:14.291Z,1.80
2023-03-16T07:51:16.068Z,1.90
2023-03-16T07:53:17.952Z,2.00
2023-03-16T07:55:19.789Z,2.10
2023-03-16T07:57:22.493Z,2.30
2023-03-16T07:59:24.072Z,2.30
2023-03-16T08:01:25.778Z,2.40
2023-03-16T08:03:28.696Z,2.40
2023-03-16T08:05:32.385Z,2.50
2023-03-16T08:07:34.988Z,2.60
2023-03-16T08:09:36.666Z,2.70
2023-03-16T08:11:39.926Z,3.10
2023-03-16T08:13:43.881Z,3.20
2023-03-16T08:15:46.353Z,3.40
2023-03-16T08:17:48.144Z,3.40
2023-03-16T08:19:49.721Z,3.50
2023-03-16T08:22:01.253Z,3.60
2023-03-16T08:24:03.396Z,3.60
2023-03-16T08:26:08.799Z,3.80
2023-03-16T08:28:10.989Z,3.90
2023-03-16T08:30:12.990Z,3.90
2023-03-16T08:32:14.631Z,4.00
2023-03-16T08:34:17.915Z,4.00
2023-03-16T08:36:20.998Z,4.10
2023-03-16T08:38:22.668Z,4.10
2023-03-16T08:40:25.370Z,4.20
2023-03-16T08:42:28.798Z,4.40
2023-03-16T08:44:30.643Z,4.50
2023-03-16T08:46:34.594Z,4.60
2023-03-16T08:48:36.519Z,4.70
2023-03-16T08:50:39.784Z,4.70
2023-03-16T08:52:41.499Z,4.80
2023-03-16T08:54:59.752Z,4.90
2023-03-16T08:57:04.539Z,5.10
2023-03-16T08:59:06.621Z,5.20
2023-03-16T09:01:09.852Z,5.20
2023-03-16T09:03:11.598Z,5.20
2023-03-16T09:05:15.027Z,5.20
2023-03-16T09:07:16.858Z,5.30
2023-03-16T09:09:18.510Z,5.60
2023-03-16T09:11:21.385Z,5.70
2023-03-16T09:13:24.443Z,5.70
2023-03-16T09:15:26.672Z,5.80
2023-03-16T09:17:28.572Z,5.90
2023-03-16T09:19:44.236Z,6.10
2023-03-16T09:21:53.904Z,6.20
2023-03-16T09:23:56.276Z,6.20
2023-03-16T09:26:02.737Z,6.20
2023-03-16T09:28:04.497Z,6.30
2023-03-16T09:30:07.540Z,6.40
2023-03-16T09:32:09.574Z,6.60
2023-03-16T09:34:11.749Z,6.70
2023-03-16T09:36:14.108Z,6.80
2023-03-16T09:38:17.710Z,6.90
2023-03-16T09:40:31.862Z,6.90
2023-03-16T09:42:36.556Z,7.00
2023-03-16T09:44:45.181Z,7.20
2023-03-16T09:46:48.688Z,7.20
2023-03-16T09:48:50.267Z,7.40
2023-03-16T09:50:54.184Z,7.50
2023-03-16T09:53:00.525Z,7.70
2023-03-16T09:55:05.221Z,7.90
2023-03-16T09:57:15.072Z,7.90
2023-03-16T09:59:18.647Z,8.20
2023-03-16T10:01:38.660Z,8.50
2023-03-16T10:03:46.945Z,8.60
2023-03-16T10:05:53.817Z,8.90
2023-03-16T10:08:02.323Z,8.80
2023-03-16T10:10:04.182Z,9.10
2023-03-16T10:12:08.080Z,9.20
2023-03-16T10:14:20.112Z,9.40
2023-03-16T10:16:25.510Z,9.40
2023-03-16T10:18:29.442Z,9.60
2023-03-16T10:20:33.436Z,9.60
2023-03-16T10:22:37.289Z,9.50
2023-03-16T10:24:43.814Z,9.70
2023-03-16T10:26:51.353Z,9.80
2023-03-16T10:28:53.114Z,10.10
2023-03-16T10:30:55.868Z,10.20
2023-03-16T10:33:01.772Z,10.30
2023-03-16T10:35:07.116Z,10.20
2023-03-16T10:37:13.679Z,10.10
2023-03-16T10:39:16.475Z,10.10
2023-03-16T10:58:50.258Z,10.90
2023-03-16T11:00:53.477Z,11.00
2023-03-16T11:02:56.698Z,11.10
2023-03-16T11:04:58.790Z,11.10
2023-03-16T11:07:00.451Z,11.10
2023-03-16T11:09:05.756Z,11.40
2023-03-16T11:11:08.735Z,11.40
2023-03-16T11:13:14.685Z,11.40
2023-03-16T11:15:25.753Z,11.40
2023-03-16T11:17:33.041Z,11.30
2023-03-16T11:19:41.495Z,11.50
2023-03-16T11:21:55.059Z,11.60
2023-03-16T11:23:58.016Z,11.90
2023-03-16T11:26:02.948Z,12.10
2023-03-16T11:28:12.908Z,12.20
2023-03-16T11:30:27.122Z,12.20
2023-03-16T11:32:35.659Z,12.60
2023-03-16T11:34:37.500Z,12.40
2023-03-16T11:36:43.249Z,12.80
2023-03-16T11:39:18.058Z,12.70
2023-03-16T11:41:25.744Z,13.20
2023-03-16T11:43:41.571Z,13.30
2023-03-16T11:45:49.521Z,13.20
2023-03-16T11:47:51.293Z,13.20
2023-03-16T11:50:00.285Z,13.40
2023-03-16T11:52:05.283Z,13.40
2023-03-16T11:54:13.445Z,14.10
2023-03-16T11:56:21.715Z,14.10
2023-03-16T11:58:42.246Z,14.60
2023-03-16T12:00:44.894Z,14.60
2023-03-16T12:03:25.910Z,14.60
2023-03-16T12:05:47.340Z,14.90
2023-03-16T12:07:55.391Z,15.20
2023-03-16T12:10:03.307Z,16.30
2023-03-16T12:12:05.123Z,17.40
2023-03-16T12:14:14.624Z,18.60
2023-03-16T12:16:48.722Z,19.50
2023-03-16T12:18:54.049Z,20.00
2023-03-16T12:20:58.550Z,19.50
2023-03-16T12:23:06.034Z,18.70
2023-03-16T12:25:19.809Z,18.70
2023-03-16T12:27:31.407Z,19.80
2023-03-16T12:29:41.510Z,20.70
2023-03-16T12:32:03.236Z,20.50
2023-03-16T12:34:14.047Z,20.60
2023-03-16T12:36:16.705Z,20.40
2023-03-16T12:38:27.750Z,20.70
2023-03-16T12:40:36.395Z,21.10
2023-03-16T12:42:50.011Z,20.70
2023-03-16T12:45:24.281Z,22.20
2023-03-16T12:47:31.318Z,22.60
2023-03-16T12:49:33.693Z,22.70
2023-03-16T12:51:36.625Z,23.50
2023-03-16T12:53:42.151Z,22.40
2023-03-16T12:55:45.165Z,21.50
2023-03-16T12:57:49.213Z,21.20
2023-03-16T12:59:55.430Z,19.80
2023-03-16T13:01:58.580Z,19.20
2023-03-16T13:04:03.193Z,18.40
2023-03-16T13:06:05.381Z,17.60
2023-03-16T13:08:11.178Z,17.30
2023-03-16T13:10:14.685Z,17.30
2023-03-16T13:12:25.847Z,17.10
2023-03-16T13:14:30.726Z,17.00
2023-03-16T13:16:33.337Z,17.70
2023-03-16T13:18:36.642Z,18.00
2023-03-16T13:20:52.461Z,18.10
2023-03-16T13:23:09.559Z,20.80
2023-03-16T13:25:14.241Z,20.60
2023-03-16T13:27:21.116Z,22.40
2023-03-16T13:29:27.132Z,22.50
2023-03-16T13:31:37.345Z,22.60
2023-03-16T13:33:40.838Z,23.70
2023-03-16T13:35:42.559Z,24.00
2023-03-16T13:37:44.684Z,23.90
2023-03-16T13:40:04.412Z,22.00
2023-03-16T13:42:08.749Z,21.30
2023-03-16T13:44:14.817Z,20.80
2023-03-16T13:46:17.576Z,21.00
2023-03-16T13:48:19.938Z,21.20
2023-03-16T13:50:22.067Z,20.80
2023-03-16T13:52:26.105Z,19.90
2023-03-16T13:54:29.799Z,18.60
2023-03-16T13:56:32.660Z,17.80
2023-03-16T13:58:35.878Z,18.80
2023-03-16T14:00:43.912Z,18.90
2023-03-16T14:02:47.153Z,18.50
2023-03-16T14:04:48.767Z,18.10
2023-03-16T14:07:00.412Z,18.10
2023-03-16T14:09:04.233Z,18.30
2023-03-16T14:11:06.696Z,19.10
2023-03-16T14:13:10.091Z,20.30
2023-03-16T14:15:13.124Z,22.10
2023-03-16T14:17:16.883Z,22.30
2023-03-16T14:19:22.604Z,22.60
2023-03-16T14:21:26.011Z,23.60
2023-03-16T14:23:33.436Z,23.10
2023-03-16T14:25:35.746Z,23.80
2023-03-16T14:27:43.664Z,23.90
2023-03-16T14:29:46.095Z,23.40
2023-03-16T14:31:49.618Z,23.30
2023-03-16T14:33:59.559Z,22.70
2023-03-16T14:36:07.715Z,22.30
2023-03-16T14:38:28.036Z,22.60
2023-03-16T14:40:34.463Z,21.60
2023-03-16T14:42:39.210Z,21.20
2023-03-16T14:44:40.830Z,21.00
2023-03-16T14:46:42.889Z,20.30
2023-03-16T14:48:45.695Z,20.20
2023-03-16T14:50:52.562Z,20.50
2023-03-16T14:52:55.721Z,20.20
2023-03-16T14:54:58.169Z,20.10
2023-03-16T14:57:01.585Z,19.80
2023-03-16T14:59:03.258Z,19.50
2023-03-16T15:01:05.148Z,19.30
2023-03-16T15:03:08.589Z,19.30
2023-03-16T15:05:15.477Z,18.80
2023-03-16T15:07:23.901Z,18.90
2023-03-16T15:09:39.254Z,18.60
2023-03-16T15:11:43.159Z,18.30
2023-03-16T15:13:46.934Z,18.10
2023-03-16T15:15:49.571Z,18.20
2023-03-16T15:17:52.504Z,18.00
2023-03-16T15:19:54.183Z,17.90
2023-03-16T15:21:56.203Z,17.40
2023-03-16T15:23:58.702Z,17.60
2023-03-16T15:26:02.748Z,17.80
2023-03-16T15:28:17.896Z,17.60
2023-03-16T15:30:22.009Z,17.70
2023-03-16T15:32:23.720Z,17.90
2023-03-16T15:34:27.284Z,17.90
2023-03-16T15:36:28.926Z,17.90
2023-03-16T15:38:32.299Z,17.70
2023-03-16T15:40:35.343Z,17.30
2023-03-16T15:42:37.033Z,16.70
2023-03-16T15:44:38.766Z,16.40
2023-03-16T15:46:40.390Z,16.20
2023-03-16T15:48:42.119Z,15.90
2023-03-16T15:50:50.305Z,15.50
2023-03-16T15:52:54.218Z,15.50
2023-03-16T15:54:57.465Z,15.50
2023-03-16T15:56:59.400Z,15.30
2023-03-16T15:59:02.387Z,15.20
2023-03-16T16:01:05.118Z,15.00
2023-03-16T16:03:09.913Z,14.80
2023-03-16T16:05:11.490Z,14.80
2023-03-16T16:07:13.409Z,14.70
2023-03-16T16:09:15.193Z,14.60
2023-03-16T16:11:19.148Z,14.50
2023-03-16T16:13:26.797Z,14.40
2023-03-16T16:15:33.806Z,14.40
2023-03-16T16:17:50.731Z,14.10
2023-03-16T16:19:57.239Z,14.10
2023-03-16T16:21:59.353Z,14.00
2023-03-16T16:24:02.911Z,13.80
2023-03-16T16:26:08.082Z,13.80
2023-03-16T16:28:20.034Z,13.60
2023-03-16T16:30:26.516Z,13.50
2023-03-16T16:32:28.247Z,13.50
2023-03-16T16:34:30.075Z,13.40
2023-03-16T16:36:32.478Z,13.30
2023-03-16T16:38:34.174Z,13.20
2023-03-16T16:40:38.023Z,13.10
2023-03-16T16:42:41.405Z,13.00
2023-03-16T16:44:43.156Z,12.90
2023-03-16T16:46:44.972Z,12.80
2023-03-16T16:48:47.741Z,12.80
2023-03-16T16:50:49.351Z,12.70
2023-03-16T16:52:51.483Z,12.60
2023-03-16T16:54:53.339Z,12.40
2023-03-16T16:56:56.189Z,12.40
2023-03-16T16:58:58.550Z,12.30
2023-03-16T17:01:00.253Z,12.20
2023-03-16T17:03:02.446Z,12.10
2023-03-16T17:05:04.153Z,11.90
2023-03-16T17:07:06.410Z,11.90
2023-03-16T17:09:08.844Z,11.80
2023-03-16T17:11:16.792Z,11.70
2023-03-16T17:13:40.698Z,11.70
2023-03-16T17:15:43.994Z,11.60
2023-03-16T17:17:45.850Z,11.50
2023-03-16T17:19:48.207Z,11.40
2023-03-16T17:21:55.355Z,11.40
2023-03-16T17:23:57.293Z,11.30
2023-03-16T17:26:16.247Z,11.20
2023-03-16T17:28:18.498Z,11.20
2023-03-16T17:30:22.019Z,11.10
2023-03-16T17:32:23.702Z,11.10
2023-03-16T17:34:27.322Z,11.10
2023-03-16T17:36:29.131Z,11.00
2023-03-16T17:38:31.555Z,10.90
2023-03-16T17:40:33.558Z,10.90
2023-03-16T17:42:35.162Z,10.80
2023-03-16T17:44:41.537Z,10.80
2023-03-16T17:46:43.215Z,10.80
2023-03-16T17:48:45.474Z,10.70
2023-03-16T17:50:47.832Z,10.70
2023-03-16T17:52:49.469Z,10.60
2023-03-16T17:54:51.950Z,10.60
2023-03-16T17:56:54.172Z,10.50
2023-03-16T17:58:59.624Z,10.50
2023-03-16T18:01:02.571Z,10.50
2023-03-16T18:03:09.797Z,10.40
2023-03-16T18:05:19.187Z,10.40
2023-03-16T18:07:20.804Z,10.30
2023-03-16T18:09:22.410Z,10.30
2023-03-16T18:11:35.989Z,10.20
2023-03-16T18:13:39.160Z,10.20
2023-03-16T18:15:40.810Z,10.10
2023-03-16T18:17:48.464Z,10.10
2023-03-16T18:19:53.397Z,10.10
2023-03-16T18:21:55.218Z,10.00
2023-03-16T18:23:57.408Z,10.00
2023-03-16T18:26:04.099Z,10.00
2023-03-16T18:28:07.696Z,9.90
2023-03-16T18:30:09.827Z,9.90
2023-03-16T18:32:26.101Z,9.90
2023-03-16T18:34:30.986Z,9.80
2023-03-16T18:36:34.343Z,9.80
2023-03-16T18:38:40.434Z,9.70
2023-03-16T18:41:00.733Z,9.60
2023-03-16T18:43:06.573Z,9.50
2023-03-16T18:45:12.124Z,9.50
2023-03-16T18:47:17.202Z,9.50
2023-03-16T18:49:21.616Z,9.40
2023-03-16T18:51:34.026Z,9.40
2023-03-16T18:53:42.141Z,9.30
2023-03-16T18:55:45.322Z,9.30
2023-03-16T18:57:56.926Z,9.30
2023-03-16T18:59:59.000Z,9.30
2023-03-16T19:02:32.974Z,9.20
2023-03-16T19:04:35.080Z,9.20
2023-03-16T19:06:39.266Z,9.20
2023-03-16T19:08:43.423Z,9.20
2023-03-16T19:10:50.178Z,9.20
2023-03-16T19:12:58.942Z,9.10
2023-03-16T19:15:01.270Z,9.10
2023-03-16T19:17:19.059Z,9.00
2023-03-16T19:19:25.157Z,9.00
2023-03-16T19:21:33.977Z,9.00
2023-03-16T19:27:03.380Z,9.00
2023-03-16T19:29:05.094Z,8.90
2023-03-16T19:31:20.456Z,8.80
2023-03-16T19:33:25.680Z,8.70
2023-03-16T19:35:48.547Z,8.70
2023-03-16T19:37:50.856Z,8.60
2023-03-16T19:39:52.609Z,8.60
2023-03-16T19:41:56.400Z,8.60
2023-03-16T19:44:01.222Z,8.60
2023-03-16T19:46:02.967Z,8.50
2023-03-16T19:48:10.045Z,8.50
2023-03-16T19:50:15.888Z,8.50
2023-03-16T19:52:17.627Z,8.40
2023-03-16T19:54:23.312Z,8.30
2023-03-16T19:56:26.862Z,8.30
2023-03-16T19:58:41.589Z,8.20
2023-03-16T20:00:43.728Z,8.20
2023-03-16T20:02:45.704Z,8.20
2023-03-16T20:04:47.407Z,8.10
2023-03-16T20:06:50.092Z,8.10
2023-03-16T20:08:51.808Z,8.10
2023-03-16T20:10:59.405Z,8.10
2023-03-16T20:13:01.684Z,8.00
2023-03-16T20:15:03.560Z,8.00
2023-03-16T20:17:09.380Z,7.90
2023-03-16T20:19:13.477Z,7.80
2023-03-16T20:21:16.114Z,7.90
2023-03-16T20:23:25.683Z,7.80
2023-03-16T20:25:30.577Z,7.80
2023-03-16T20:27:32.695Z,7.80
2023-03-16T20:29:34.484Z,7.70
2023-03-16T20:31:36.593Z,7.70
2023-03-16T20:33:38.257Z,7.70
2023-03-16T20:35:40.003Z,7.60
2023-03-16T20:37:41.706Z,7.60
2023-03-16T20:39:44.467Z,7.60
2023-03-16T20:41:46.379Z,7.50
2023-03-16T20:43:48.432Z,7.50
2023-03-16T20:45:51.125Z,7.40
2023-03-16T20:47:53.666Z,7.40
2023-03-16T20:49:57.418Z,7.40
2023-03-16T20:51:59.373Z,7.40
2023-03-16T20:54:01.169Z,7.30
2023-03-16T20:56:03.139Z,7.30
2023-03-16T20:58:11.433Z,7.20
2023-03-16T21:00:28.175Z,7.20
2023-03-16T21:02:32.011Z,7.20
2023-03-16T21:04:33.849Z,7.10
2023-03-16T21:06:35.544Z,7.10
2023-03-16T21:08:37.688Z,7.00
2023-03-16T21:10:39.653Z,7.00
2023-03-16T21:12:43.259Z,7.00
2023-03-16T21:14:45.022Z,7.00
2023-03-16T21:16:47.499Z,7.00
2023-03-16T21:18:49.688Z,6.90
2023-03-16T21:20:51.947Z,6.90
2023-03-16T21:22:53.727Z,6.90
2023-03-16T21:24:55.762Z,6.90
2023-03-16T21:26:57.435Z,6.80
2023-03-16T21:29:00.373Z,6.80
2023-03-16T21:31:02.928Z,6.80
2023-03-16T21:33:12.285Z,6.80
2023-03-16T21:35:17.167Z,6.70
2023-03-16T21:37:20.078Z,6.70
2023-03-16T21:39:23.761Z,6.70
2023-03-16T21:41:25.756Z,6.70
2023-03-16T21:43:27.408Z,6.60
2023-03-16T21:45:29.317Z,6.60
2023-03-16T21:47:31.912Z,6.60
2023-03-16T21:49:33.897Z,6.60
2023-03-16T21:51:36.193Z,6.60
2023-03-16T21:53:38.330Z,6.50
2023-03-16T21:55:40.032Z,6.50
2023-03-16T21:57:42.231Z,6.50
2023-03-16T21:59:44.025Z,6.40
2023-03-16T22:02:00.711Z,6.40
2023-03-16T22:04:05.479Z,6.40
2023-03-16T22:06:11.369Z,6.40
2023-03-16T22:08:18.946Z,6.30
2023-03-16T22:10:21.242Z,6.30
2023-03-16T22:12:23.078Z,6.30
2023-03-16T22:14:24.697Z,6.30
2023-03-16T22:16:29.942Z,6.30
2023-03-16T22:18:33.738Z,6.20
2023-03-16T22:20:35.839Z,6.20
2023-03-16T22:22:37.553Z,6.20
2023-03-16T22:24:39.400Z,6.20
2023-03-16T22:26:41.366Z,6.20
2023-03-16T22:28:43.235Z,6.10
2023-03-16T22:30:45.376Z,6.10
2023-03-16T22:32:49.034Z,6.00
2023-03-16T22:34:52.267Z,6.00
2023-03-16T22:36:54.219Z,6.10
2023-03-16T22:38:57.937Z,6.00
2023-03-16T22:40:59.712Z,6.00
2023-03-16T22:43:03.232Z,6.00
2023-03-16T22:45:25.520Z,5.90
2023-03-16T22:47:28.412Z,5.90
2023-03-16T22:49:30.110Z,5.90
2023-03-16T22:51:33.805Z,5.90
2023-03-16T22:53:41.343Z,5.90
2023-03-16T22:55:42.960Z,5.80
2023-03-16T22:57:44.981Z,5.80
2023-03-16T22:59:47.231Z,5.80
2023-03-16T23:01:49.390Z,5.80
2023-03-16T23:03:52.868Z,5.80
2023-03-16T23:05:54.526Z,5.70
2023-03-16T23:07:57.712Z,5.80
2023-03-16T23:09:59.313Z,5.70
2023-03-16T23:12:03.123Z,5.70
2023-03-16T23:14:09.739Z,5.60
2023-03-16T23:16:17.785Z,5.60
2023-03-16T23:18:21.837Z,5.60
2023-03-16T23:20:28.277Z,5.50
2023-03-16T23:22:30.157Z,5.50
2023-03-16T23:24:32.341Z,5.50
2023-03-16T23:26:33.970Z,5.50
2023-03-16T23:28:35.755Z,5.50
2023-03-16T23:30:37.781Z,5.40
2023-03-16T23:32:39.480Z,5.40
2023-03-16T23:34:41.440Z,5.40
2023-03-16T23:36:45.978Z,5.40
2023-03-16T23:38:48.595Z,5.30
2023-03-16T23:40:50.263Z,5.30
2023-03-16T23:42:53.364Z,5.30
2023-03-16T23:44:55.166Z,5.30
2023-03-16T23:46:57.076Z,5.30
2023-03-16T23:49:01.348Z,5.20
2023-03-16T23:51:03.727Z,5.20
2023-03-16T23:53:10.906Z,5.20
2023-03-16T23:55:16.182Z,5.10
2023-03-16T23:57:17.789Z,5.10
2023-03-16T23:59:20.302Z,5.10
